Trenton, Nebraska
Current Conditions -  °F | °C
As of 4:53 PM on Wednesday 17 Dec 2014 (Local Time) from KMCK Reporting Station
Haze Haze  
Wind Chill: 14°   Ceiling: 200
Heat Index: 23°   Visibility: 1.2mi
Dew Point: 22°   Wind: 8mph
Humidity: 96%   Direction: 110°ESE
Pressure: 30.1"   Gusts: NA
Location:  40.18°N, 101.01°W
Report Text: KMCK 172253Z AUTO 11007KT 1 1/4SM BR OVC002 M05/M06 A3010 RMK AO2 SLP227 I1001 T10501056
Loading
Personal Weather Stations






























Interactive Weather Map New forecast layout! Learn more

10-Day Weather Forecast

Advertisements
Track Severe Weather on mobile